sensor_id;sensor_type;location;lat;lon;timestamp;temperature;humidity
23271;DHT22;11804;51.118;17.058;2022-11-20T00:01:24;-2.60;99.90
23271;DHT22;11804;51.118;17.058;2022-11-20T00:03:55;-2.60;99.90
23271;DHT22;11804;51.118;17.058;2022-11-20T00:06:23;-2.60;99.90
23271;DHT22;11804;51.118;17.058;2022-11-20T00:08:51;-2.60;99.90
23271;DHT22;11804;51.118;17.058;2022-11-20T00:11:22;-2.60;99.90
23271;DHT22;11804;51.118;17.058;2022-11-20T00:13:52;-2.60;99.90
23271;DHT22;11804;51.118;17.058;2022-11-20T00:16:23;-2.60;99.90
23271;DHT22;11804;51.118;17.058;2022-11-20T00:18:51;-2.50;99.90
23271;DHT22;11804;51.118;17.058;2022-11-20T00:21:21;-2.50;99.90
23271;DHT22;11804;51.118;17.058;2022-11-20T00:23:51;-2.50;99.90
23271;DHT22;11804;51.118;17.058;2022-11-20T00:26:20;-2.60;99.90
23271;DHT22;11804;51.118;17.058;2022-11-20T00:28:56;-2.60;99.90
23271;DHT22;11804;51.118;17.058;2022-11-20T00:31:20;-2.70;99.90
23271;DHT22;11804;51.118;17.058;2022-11-20T00:33:48;-2.90;99.90
23271;DHT22;11804;51.118;17.058;2022-11-20T00:36:18;-3.10;99.90
23271;DHT22;11804;51.118;17.058;2022-11-20T00:38:46;-3.20;99.90
23271;DHT22;11804;51.118;17.058;2022-11-20T00:41:15;-3.10;99.90
23271;DHT22;11804;51.118;17.058;2022-11-20T00:43:43;-3.10;99.90
23271;DHT22;11804;51.118;17.058;2022-11-20T00:46:13;-3.10;99.90
23271;DHT22;11804;51.118;17.058;2022-11-20T00:48:41;-3.00;99.90
23271;DHT22;11804;51.118;17.058;2022-11-20T00:51:12;-2.80;99.90
23271;DHT22;11804;51.118;17.058;2022-11-20T00:53:40;-2.70;99.90
23271;DHT22;11804;51.118;17.058;2022-11-20T00:56:10;-2.60;99.90
23271;DHT22;11804;51.118;17.058;2022-11-20T00:58:40;-2.60;99.90
23271;DHT22;11804;51.118;17.058;2022-11-20T01:03:43;-2.50;99.90
23271;DHT22;11804;51.118;17.058;2022-11-20T01:06:14;-2.40;99.90
23271;DHT22;11804;51.118;17.058;2022-11-20T01:08:43;-2.50;99.90
23271;DHT22;11804;51.118;17.058;2022-11-20T01:11:18;-2.50;99.90
23271;DHT22;11804;51.118;17.058;2022-11-20T01:13:42;-2.50;99.90
23271;DHT22;11804;51.118;17.058;2022-11-20T01:16:12;-2.50;99.90
23271;DHT22;11804;51.118;17.058;2022-11-20T01:18:43;-2.50;99.90
23271;DHT22;11804;51.118;17.058;2022-11-20T01:21:16;-2.40;99.90
23271;DHT22;11804;51.118;17.058;2022-11-20T01:23:45;-2.40;99.90
23271;DHT22;11804;51.118;17.058;2022-11-20T01:26:15;-2.50;99.90
23271;DHT22;11804;51.118;17.058;2022-11-20T01:28:43;-2.50;99.90
23271;DHT22;11804;51.118;17.058;2022-11-20T01:31:25;-2.50;99.90
23271;DHT22;11804;51.118;17.058;2022-11-20T01:33:56;-2.50;99.90
23271;DHT22;11804;51.118;17.058;2022-11-20T01:36:26;-2.70;99.90
23271;DHT22;11804;51.118;17.058;2022-11-20T01:38:56;-2.80;99.90
23271;DHT22;11804;51.118;17.058;2022-11-20T01:41:25;-2.80;99.90
23271;DHT22;11804;51.118;17.058;2022-11-20T01:44:17;-2.80;99.90
23271;DHT22;11804;51.118;17.058;2022-11-20T01:47:03;-2.80;99.90
23271;DHT22;11804;51.118;17.058;2022-11-20T01:49:32;-2.90;99.90
23271;DHT22;11804;51.118;17.058;2022-11-20T01:52:01;-3.10;99.90
23271;DHT22;11804;51.118;17.058;2022-11-20T01:54:39;-3.20;99.90
23271;DHT22;11804;51.118;17.058;2022-11-20T01:57:05;-3.10;99.90
23271;DHT22;11804;51.118;17.058;2022-11-20T01:59:34;-3.00;99.90
23271;DHT22;11804;51.118;17.058;2022-11-20T02:02:03;-2.90;99.90
23271;DHT22;11804;51.118;17.058;2022-11-20T02:04:30;-2.90;99.90
23271;DHT22;11804;51.118;17.058;2022-11-20T02:07:00;-2.80;99.90
23271;DHT22;11804;51.118;17.058;2022-11-20T02:09:28;-2.80;99.90
23271;DHT22;11804;51.118;17.058;2022-11-20T02:11:56;-2.80;99.90
23271;DHT22;11804;51.118;17.058;2022-11-20T02:14:25;-2.80;99.90
23271;DHT22;11804;51.118;17.058;2022-11-20T02:16:55;-2.80;99.90
23271;DHT22;11804;51.118;17.058;2022-11-20T02:19:26;-2.80;99.90
23271;DHT22;11804;51.118;17.058;2022-11-20T02:22:27;-2.80;99.90
23271;DHT22;11804;51.118;17.058;2022-11-20T02:24:51;-2.80;99.90
23271;DHT22;11804;51.118;17.058;2022-11-20T02:27:19;-2.80;99.90
23271;DHT22;11804;51.118;17.058;2022-11-20T02:29:52;-2.80;99.90
23271;DHT22;11804;51.118;17.058;2022-11-20T02:32:29;-2.90;99.90
23271;DHT22;11804;51.118;17.058;2022-11-20T02:34:57;-2.90;99.90
23271;DHT22;11804;51.118;17.058;2022-11-20T02:37:28;-2.90;99.90
23271;DHT22;11804;51.118;17.058;2022-11-20T02:39:55;-3.00;99.90
23271;DHT22;11804;51.118;17.058;2022-11-20T02:42:23;-3.00;99.90
23271;DHT22;11804;51.118;17.058;2022-11-20T02:44:51;-3.10;99.90
23271;DHT22;11804;51.118;17.058;2022-11-20T02:47:18;-3.20;99.90
23271;DHT22;11804;51.118;17.058;2022-11-20T02:49:46;-3.20;99.90
23271;DHT22;11804;51.118;17.058;2022-11-20T02:52:13;-3.10;99.90
23271;DHT22;11804;51.118;17.058;2022-11-20T02:54:41;-3.10;99.90
23271;DHT22;11804;51.118;17.058;2022-11-20T02:57:08;-3.00;99.90
23271;DHT22;11804;51.118;17.058;2022-11-20T02:59:36;-3.00;99.90
23271;DHT22;11804;51.118;17.058;2022-11-20T03:02:03;-3.00;99.90
23271;DHT22;11804;51.118;17.058;2022-11-20T03:04:32;-3.00;99.90
23271;DHT22;11804;51.118;17.058;2022-11-20T03:07:00;-3.00;99.90
23271;DHT22;11804;51.118;17.058;2022-11-20T03:09:28;-3.00;99.90
23271;DHT22;11804;51.118;17.058;2022-11-20T03:11:55;-3.00;99.90
23271;DHT22;11804;51.118;17.058;2022-11-20T03:14:23;-3.00;99.90
23271;DHT22;11804;51.118;17.058;2022-11-20T03:16:51;-3.10;99.90
23271;DHT22;11804;51.118;17.058;2022-11-20T03:19:18;-3.00;99.90
23271;DHT22;11804;51.118;17.058;2022-11-20T03:21:46;-3.10;99.90
23271;DHT22;11804;51.118;17.058;2022-11-20T03:24:17;-3.00;99.90
23271;DHT22;11804;51.118;17.058;2022-11-20T03:26:45;-3.00;99.90
23271;DHT22;11804;51.118;17.058;2022-11-20T03:29:15;-3.00;99.90
23271;DHT22;11804;51.118;17.058;2022-11-20T03:31:43;-3.00;99.90
23271;DHT22;11804;51.118;17.058;2022-11-20T03:34:11;-3.10;99.90
23271;DHT22;11804;51.118;17.058;2022-11-20T03:36:41;-3.10;99.90
23271;DHT22;11804;51.118;17.058;2022-11-20T03:39:09;-3.20;99.90
23271;DHT22;11804;51.118;17.058;2022-11-20T03:41:38;-3.20;99.90
23271;DHT22;11804;51.118;17.058;2022-11-20T03:44:08;-3.30;99.90
23271;DHT22;11804;51.118;17.058;2022-11-20T03:46:36;-3.40;99.90
23271;DHT22;11804;51.118;17.058;2022-11-20T03:49:05;-3.50;99.90
23271;DHT22;11804;51.118;17.058;2022-11-20T03:51:35;-3.50;99.90
23271;DHT22;11804;51.118;17.058;2022-11-20T03:54:06;-3.60;99.90
23271;DHT22;11804;51.118;17.058;2022-11-20T03:56:37;-3.60;99.90
23271;DHT22;11804;51.118;17.058;2022-11-20T03:59:05;-3.50;99.90
23271;DHT22;11804;51.118;17.058;2022-11-20T04:01:35;-3.60;99.90
23271;DHT22;11804;51.118;17.058;2022-11-20T04:04:04;-3.60;99.90
23271;DHT22;11804;51.118;17.058;2022-11-20T04:06:37;-3.70;99.90
23271;DHT22;11804;51.118;17.058;2022-11-20T04:09:06;-3.70;99.90
23271;DHT22;11804;51.118;17.058;2022-11-20T04:11:36;-3.70;99.90
23271;DHT22;11804;51.118;17.058;2022-11-20T04:14:05;-3.80;99.90
23271;DHT22;11804;51.118;17.058;2022-11-20T04:16:35;-3.70;99.90
23271;DHT22;11804;51.118;17.058;2022-11-20T04:19:05;-3.70;99.90
23271;DHT22;11804;51.118;17.058;2022-11-20T04:21:33;-3.70;99.90
23271;DHT22;11804;51.118;17.058;2022-11-20T04:24:01;-3.80;99.90
23271;DHT22;11804;51.118;17.058;2022-11-20T04:26:30;-3.90;99.90
23271;DHT22;11804;51.118;17.058;2022-11-20T04:28:59;-3.90;99.90
23271;DHT22;11804;51.118;17.058;2022-11-20T04:31:32;-3.90;99.90
23271;DHT22;11804;51.118;17.058;2022-11-20T04:34:01;-3.90;99.90
23271;DHT22;11804;51.118;17.058;2022-11-20T04:36:30;-4.00;99.90
23271;DHT22;11804;51.118;17.058;2022-11-20T04:39:00;-3.90;99.90
23271;DHT22;11804;51.118;17.058;2022-11-20T04:41:30;-3.90;99.90
23271;DHT22;11804;51.118;17.058;2022-11-20T04:44:00;-3.90;99.90
23271;DHT22;11804;51.118;17.058;2022-11-20T04:46:32;-4.00;99.90
23271;DHT22;11804;51.118;17.058;2022-11-20T04:49:00;-4.00;99.90
23271;DHT22;11804;51.118;17.058;2022-11-20T04:51:28;-4.10;99.90
23271;DHT22;11804;51.118;17.058;2022-11-20T04:53:56;-4.10;99.90
23271;DHT22;11804;51.118;17.058;2022-11-20T04:56:24;-4.10;99.90
23271;DHT22;11804;51.118;17.058;2022-11-20T04:58:51;-4.10;99.90
23271;DHT22;11804;51.118;17.058;2022-11-20T05:01:22;-4.10;99.90
23271;DHT22;11804;51.118;17.058;2022-11-20T05:03:50;-4.10;99.90
23271;DHT22;11804;51.118;17.058;2022-11-20T05:06:20;-4.20;99.90
23271;DHT22;11804;51.118;17.058;2022-11-20T05:08:48;-4.30;99.90
23271;DHT22;11804;51.118;17.058;2022-11-20T05:11:18;-4.50;99.90
23271;DHT22;11804;51.118;17.058;2022-11-20T05:13:46;-4.60;99.90
23271;DHT22;11804;51.118;17.058;2022-11-20T05:16:17;-4.60;99.90
23271;DHT22;11804;51.118;17.058;2022-11-20T05:18:44;-4.50;99.90
23271;DHT22;11804;51.118;17.058;2022-11-20T05:21:13;-4.40;99.90
23271;DHT22;11804;51.118;17.058;2022-11-20T05:23:41;-4.40;99.90
23271;DHT22;11804;51.118;17.058;2022-11-20T05:26:22;-4.30;99.90
23271;DHT22;11804;51.118;17.058;2022-11-20T05:28:48;-4.30;99.90
23271;DHT22;11804;51.118;17.058;2022-11-20T05:31:19;-4.20;99.90
23271;DHT22;11804;51.118;17.058;2022-11-20T05:33:47;-4.20;99.90
23271;DHT22;11804;51.118;17.058;2022-11-20T05:36:15;-4.20;99.90
23271;DHT22;11804;51.118;17.058;2022-11-20T05:38:44;-4.30;99.90
23271;DHT22;11804;51.118;17.058;2022-11-20T05:41:13;-4.30;99.90
23271;DHT22;11804;51.118;17.058;2022-11-20T05:43:42;-4.40;99.90
23271;DHT22;11804;51.118;17.058;2022-11-20T05:46:12;-4.50;99.90
23271;DHT22;11804;51.118;17.058;2022-11-20T05:48:42;-4.40;99.90
23271;DHT22;11804;51.118;17.058;2022-11-20T05:51:12;-4.40;99.90
23271;DHT22;11804;51.118;17.058;2022-11-20T05:53:41;-4.50;99.90
23271;DHT22;11804;51.118;17.058;2022-11-20T05:56:17;-4.40;99.90
23271;DHT22;11804;51.118;17.058;2022-11-20T05:58:52;-4.40;99.90
23271;DHT22;11804;51.118;17.058;2022-11-20T06:01:23;-4.30;99.90
23271;DHT22;11804;51.118;17.058;2022-11-20T06:03:52;-4.30;99.90
23271;DHT22;11804;51.118;17.058;2022-11-20T06:06:20;-4.30;99.90
23271;DHT22;11804;51.118;17.058;2022-11-20T06:08:48;-4.30;99.90
23271;DHT22;11804;51.118;17.058;2022-11-20T06:11:16;-4.30;99.90
23271;DHT22;11804;51.118;17.058;2022-11-20T06:14:01;-4.40;99.90
23271;DHT22;11804;51.118;17.058;2022-11-20T06:16:18;-4.40;99.90
23271;DHT22;11804;51.118;17.058;2022-11-20T06:18:47;-4.30;99.90
23271;DHT22;11804;51.118;17.058;2022-11-20T06:21:18;-4.30;99.90
23271;DHT22;11804;51.118;17.058;2022-11-20T06:23:47;-4.50;99.90
23271;DHT22;11804;51.118;17.058;2022-11-20T06:26:22;-4.50;99.90
23271;DHT22;11804;51.118;17.058;2022-11-20T06:28:47;-4.40;99.90
23271;DHT22;11804;51.118;17.058;2022-11-20T06:31:17;-4.30;99.90
23271;DHT22;11804;51.118;17.058;2022-11-20T06:33:46;-4.30;99.90
23271;DHT22;11804;51.118;17.058;2022-11-20T06:36:16;-4.30;99.90
23271;DHT22;11804;51.118;17.058;2022-11-20T06:38:44;-4.20;99.90
23271;DHT22;11804;51.118;17.058;2022-11-20T06:41:15;-4.20;99.90
23271;DHT22;11804;51.118;17.058;2022-11-20T06:43:43;-4.20;99.90
23271;DHT22;11804;51.118;17.058;2022-11-20T06:46:12;-4.20;99.90
23271;DHT22;11804;51.118;17.058;2022-11-20T06:48:40;-4.20;99.90
23271;DHT22;11804;51.118;17.058;2022-11-20T06:51:11;-4.30;99.90
23271;DHT22;11804;51.118;17.058;2022-11-20T06:53:44;-4.30;99.90
23271;DHT22;11804;51.118;17.058;2022-11-20T06:56:12;-4.40;99.90
23271;DHT22;11804;51.118;17.058;2022-11-20T06:58:39;-4.50;99.90
23271;DHT22;11804;51.118;17.058;2022-11-20T07:01:11;-4.40;99.90
23271;DHT22;11804;51.118;17.058;2022-11-20T07:03:40;-4.40;99.90
23271;DHT22;11804;51.118;17.058;2022-11-20T07:06:08;-4.30;99.90
23271;DHT22;11804;51.118;17.058;2022-11-20T07:08:36;-4.20;99.90
23271;DHT22;11804;51.118;17.058;2022-11-20T07:11:11;-4.10;99.90
23271;DHT22;11804;51.118;17.058;2022-11-20T07:13:37;-4.00;99.90
23271;DHT22;11804;51.118;17.058;2022-11-20T07:16:16;-4.00;99.90
23271;DHT22;11804;51.118;17.058;2022-11-20T07:18:54;-4.10;99.90
23271;DHT22;11804;51.118;17.058;2022-11-20T07:21:23;-4.20;99.90
23271;DHT22;11804;51.118;17.058;2022-11-20T07:23:51;-4.30;99.90
23271;DHT22;11804;51.118;17.058;2022-11-20T07:26:19;-4.30;99.90
23271;DHT22;11804;51.118;17.058;2022-11-20T07:28:46;-4.30;99.90
23271;DHT22;11804;51.118;17.058;2022-11-20T07:31:14;-4.30;99.90
23271;DHT22;11804;51.118;17.058;2022-11-20T07:33:41;-4.20;99.90
23271;DHT22;11804;51.118;17.058;2022-11-20T07:36:09;-4.10;99.90
23271;DHT22;11804;51.118;17.058;2022-11-20T07:38:37;-4.00;99.90
23271;DHT22;11804;51.118;17.058;2022-11-20T07:41:05;-3.90;99.90
23271;DHT22;11804;51.118;17.058;2022-11-20T07:43:33;-3.90;99.90
23271;DHT22;11804;51.118;17.058;2022-11-20T07:46:00;-3.80;99.90
23271;DHT22;11804;51.118;17.058;2022-11-20T07:48:28;-3.70;99.90
23271;DHT22;11804;51.118;17.058;2022-11-20T07:50:56;-3.70;99.90
23271;DHT22;11804;51.118;17.058;2022-11-20T07:53:24;-3.70;99.90
23271;DHT22;11804;51.118;17.058;2022-11-20T07:55:52;-3.60;99.90
23271;DHT22;11804;51.118;17.058;2022-11-20T07:58:20;-3.50;99.90
23271;DHT22;11804;51.118;17.058;2022-11-20T08:00:48;-3.40;99.90
23271;DHT22;11804;51.118;17.058;2022-11-20T08:03:15;-3.20;99.90
23271;DHT22;11804;51.118;17.058;2022-11-20T08:05:43;-3.10;99.90
23271;DHT22;11804;51.118;17.058;2022-11-20T08:08:10;-3.00;99.90
23271;DHT22;11804;51.118;17.058;2022-11-20T08:10:38;-3.00;99.90
23271;DHT22;11804;51.118;17.058;2022-11-20T08:13:05;-2.90;99.90
23271;DHT22;11804;51.118;17.058;2022-11-20T08:15:47;-2.80;99.90
23271;DHT22;11804;51.118;17.058;2022-11-20T08:18:14;-2.70;99.90
23271;DHT22;11804;51.118;17.058;2022-11-20T08:20:41;-2.60;99.90
23271;DHT22;11804;51.118;17.058;2022-11-20T08:23:09;-2.60;99.90
23271;DHT22;11804;51.118;17.058;2022-11-20T08:25:38;-2.50;99.90
23271;DHT22;11804;51.118;17.058;2022-11-20T08:28:08;-2.40;99.90
23271;DHT22;11804;51.118;17.058;2022-11-20T08:30:36;-2.40;99.90
23271;DHT22;11804;51.118;17.058;2022-11-20T08:33:06;-2.30;99.90
23271;DHT22;11804;51.118;17.058;2022-11-20T08:35:38;-2.30;99.90
23271;DHT22;11804;51.118;17.058;2022-11-20T08:38:08;-2.40;99.90
23271;DHT22;11804;51.118;17.058;2022-11-20T08:40:36;-2.40;99.90
23271;DHT22;11804;51.118;17.058;2022-11-20T08:43:03;-2.30;99.90
23271;DHT22;11804;51.118;17.058;2022-11-20T08:45:31;-2.10;99.90
23271;DHT22;11804;51.118;17.058;2022-11-20T08:48:02;-2.00;99.90
23271;DHT22;11804;51.118;17.058;2022-11-20T08:50:32;-1.70;99.90
23271;DHT22;11804;51.118;17.058;2022-11-20T08:53:05;-1.00;99.90
23271;DHT22;11804;51.118;17.058;2022-11-20T08:55:33;0.10;99.90
23271;DHT22;11804;51.118;17.058;2022-11-20T08:58:06;0.70;99.90
23271;DHT22;11804;51.118;17.058;2022-11-20T09:00:34;0.60;99.90
23271;DHT22;11804;51.118;17.058;2022-11-20T09:03:02;-0.10;99.90
23271;DHT22;11804;51.118;17.058;2022-11-20T09:05:30;-0.40;99.90
23271;DHT22;11804;51.118;17.058;2022-11-20T09:07:58;-0.80;99.90
23271;DHT22;11804;51.118;17.058;2022-11-20T09:10:26;-1.00;99.90
23271;DHT22;11804;51.118;17.058;2022-11-20T09:12:55;-1.00;99.90
23271;DHT22;11804;51.118;17.058;2022-11-20T09:15:23;-0.50;99.90
23271;DHT22;11804;51.118;17.058;2022-11-20T09:17:58;-0.10;99.90
23271;DHT22;11804;51.118;17.058;2022-11-20T09:20:26;0.50;99.90
23271;DHT22;11804;51.118;17.058;2022-11-20T09:22:55;1.80;99.90
23271;DHT22;11804;51.118;17.058;2022-11-20T09:25:23;2.70;98.10
23271;DHT22;11804;51.118;17.058;2022-11-20T09:27:58;3.50;94.10
23271;DHT22;11804;51.118;17.058;2022-11-20T09:30:27;4.10;92.20
23271;DHT22;11804;51.118;17.058;2022-11-20T09:32:54;4.50;88.30
23271;DHT22;11804;51.118;17.058;2022-11-20T09:35:22;4.30;85.50
23271;DHT22;11804;51.118;17.058;2022-11-20T09:37:52;3.90;86.50
23271;DHT22;11804;51.118;17.058;2022-11-20T09:40:21;3.90;88.10
23271;DHT22;11804;51.118;17.058;2022-11-20T09:48:15;3.70;86.40
23271;DHT22;11804;51.118;17.058;2022-11-20T09:50:49;3.20;90.60
23271;DHT22;11804;51.118;17.058;2022-11-20T09:53:37;3.80;88.60
23271;DHT22;11804;51.118;17.058;2022-11-20T09:56:04;3.60;87.10
23271;DHT22;11804;51.118;17.058;2022-11-20T09:58:52;2.30;90.00
23271;DHT22;11804;51.118;17.058;2022-11-20T10:01:23;2.00;91.60
23271;DHT22;11804;51.118;17.058;2022-11-20T10:04:04;2.20;91.90
23271;DHT22;11804;51.118;17.058;2022-11-20T10:06:39;2.30;91.80
23271;DHT22;11804;51.118;17.058;2022-11-20T10:09:21;2.70;91.70
23271;DHT22;11804;51.118;17.058;2022-11-20T10:12:20;3.70;90.20
23271;DHT22;11804;51.118;17.058;2022-11-20T10:14:55;4.40;84.80
23271;DHT22;11804;51.118;17.058;2022-11-20T10:20:19;4.50;81.70
23271;DHT22;11804;51.118;17.058;2022-11-20T10:25:47;4.30;81.40
23271;DHT22;11804;51.118;17.058;2022-11-20T10:28:40;3.60;84.40
23271;DHT22;11804;51.118;17.058;2022-11-20T10:31:12;3.90;85.10
23271;DHT22;11804;51.118;17.058;2022-11-20T10:33:42;4.70;81.80
23271;DHT22;11804;51.118;17.058;2022-11-20T10:36:17;4.70;80.10
23271;DHT22;11804;51.118;17.058;2022-11-20T10:38:50;4.50;81.10
23271;DHT22;11804;51.118;17.058;2022-11-20T10:41:25;4.90;81.80
23271;DHT22;11804;51.118;17.058;2022-11-20T10:46:29;4.50;82.30
23271;DHT22;11804;51.118;17.058;2022-11-20T10:48:56;4.50;82.40
23271;DHT22;11804;51.118;17.058;2022-11-20T10:56:52;3.70;84.80
23271;DHT22;11804;51.118;17.058;2022-11-20T10:59:35;3.40;85.80
23271;DHT22;11804;51.118;17.058;2022-11-20T11:02:18;3.20;87.10
23271;DHT22;11804;51.118;17.058;2022-11-20T11:04:54;2.90;88.30
23271;DHT22;11804;51.118;17.058;2022-11-20T11:07:22;2.70;90.00
23271;DHT22;11804;51.118;17.058;2022-11-20T11:09:56;2.60;91.00
23271;DHT22;11804;51.118;17.058;2022-11-20T11:12:26;2.50;91.30
23271;DHT22;11804;51.118;17.058;2022-11-20T11:14:58;2.30;91.30
23271;DHT22;11804;51.118;17.058;2022-11-20T11:17:28;2.00;91.20
23271;DHT22;11804;51.118;17.058;2022-11-20T11:20:17;1.70;91.80
23271;DHT22;11804;51.118;17.058;2022-11-20T11:22:48;1.60;91.50
23271;DHT22;11804;51.118;17.058;2022-11-20T11:27:58;1.80;91.30
23271;DHT22;11804;51.118;17.058;2022-11-20T11:30:28;1.70;91.60
23271;DHT22;11804;51.118;17.058;2022-11-20T11:33:11;1.80;90.90
23271;DHT22;11804;51.118;17.058;2022-11-20T11:35:45;1.90;91.00
23271;DHT22;11804;51.118;17.058;2022-11-20T11:38:21;1.80;90.30
23271;DHT22;11804;51.118;17.058;2022-11-20T11:40:44;1.80;90.50
23271;DHT22;11804;51.118;17.058;2022-11-20T11:43:32;1.80;90.50
23271;DHT22;11804;51.118;17.058;2022-11-20T11:48:56;1.80;89.50
23271;DHT22;11804;51.118;17.058;2022-11-20T11:51:45;1.70;89.60
23271;DHT22;11804;51.118;17.058;2022-11-20T11:54:29;1.70;89.70
23271;DHT22;11804;51.118;17.058;2022-11-20T11:56:40;1.80;90.00
23271;DHT22;11804;51.118;17.058;2022-11-20T11:59:10;1.90;90.10
23271;DHT22;11804;51.118;17.058;2022-11-20T12:01:44;1.90;90.20
23271;DHT22;11804;51.118;17.058;2022-11-20T12:04:21;2.00;90.10
23271;DHT22;11804;51.118;17.058;2022-11-20T12:07:08;2.00;90.20
23271;DHT22;11804;51.118;17.058;2022-11-20T12:09:34;2.00;90.50
23271;DHT22;11804;51.118;17.058;2022-11-20T12:12:21;2.10;90.50
23271;DHT22;11804;51.118;17.058;2022-11-20T12:14:46;2.20;90.70
23271;DHT22;11804;51.118;17.058;2022-11-20T12:17:16;2.20;90.80
23271;DHT22;11804;51.118;17.058;2022-11-20T12:19:45;2.20;91.10
23271;DHT22;11804;51.118;17.058;2022-11-20T12:22:31;2.30;91.00
23271;DHT22;11804;51.118;17.058;2022-11-20T12:27:42;2.30;91.60
23271;DHT22;11804;51.118;17.058;2022-11-20T12:30:16;2.30;91.80
23271;DHT22;11804;51.118;17.058;2022-11-20T12:36:12;2.40;91.80
23271;DHT22;11804;51.118;17.058;2022-11-20T12:41:38;2.20;92.80
23271;DHT22;11804;51.118;17.058;2022-11-20T12:44:30;2.20;93.00
23271;DHT22;11804;51.118;17.058;2022-11-20T12:53:04;2.60;92.70
23271;DHT22;11804;51.118;17.058;2022-11-20T13:04:01;2.30;93.80
23271;DHT22;11804;51.118;17.058;2022-11-20T13:06:30;2.30;94.00
23271;DHT22;11804;51.118;17.058;2022-11-20T13:08:57;2.20;94.10
23271;DHT22;11804;51.118;17.058;2022-11-20T13:12:02;2.30;94.50
23271;DHT22;11804;51.118;17.058;2022-11-20T13:16:59;2.60;93.30
23271;DHT22;11804;51.118;17.058;2022-11-20T13:19:27;2.50;93.40
23271;DHT22;11804;51.118;17.058;2022-11-20T13:21:56;2.30;94.10
23271;DHT22;11804;51.118;17.058;2022-11-20T13:24:26;2.20;94.70
23271;DHT22;11804;51.118;17.058;2022-11-20T13:29:47;2.10;95.50
23271;DHT22;11804;51.118;17.058;2022-11-20T13:32:20;2.00;96.10
23271;DHT22;11804;51.118;17.058;2022-11-20T13:34:53;1.90;96.50
23271;DHT22;11804;51.118;17.058;2022-11-20T13:37:36;1.90;97.10
23271;DHT22;11804;51.118;17.058;2022-11-20T13:42:45;1.80;97.30
23271;DHT22;11804;51.118;17.058;2022-11-20T13:45:30;1.80;96.90
23271;DHT22;11804;51.118;17.058;2022-11-20T13:48:22;1.70;97.10
23271;DHT22;11804;51.118;17.058;2022-11-20T13:56:10;1.70;97.00
23271;DHT22;11804;51.118;17.058;2022-11-20T14:01:26;1.60;96.90
23271;DHT22;11804;51.118;17.058;2022-11-20T14:03:50;1.60;96.30
23271;DHT22;11804;51.118;17.058;2022-11-20T14:06:27;1.60;96.10
23271;DHT22;11804;51.118;17.058;2022-11-20T14:08:56;1.50;96.10
23271;DHT22;11804;51.118;17.058;2022-11-20T14:11:26;1.50;96.30
23271;DHT22;11804;51.118;17.058;2022-11-20T14:16:36;1.50;96.50
23271;DHT22;11804;51.118;17.058;2022-11-20T14:21:52;1.40;96.80
23271;DHT22;11804;51.118;17.058;2022-11-20T14:24:22;1.40;97.10
23271;DHT22;11804;51.118;17.058;2022-11-20T14:26:51;1.40;97.50
23271;DHT22;11804;51.118;17.058;2022-11-20T14:29:26;1.30;97.90
23271;DHT22;11804;51.118;17.058;2022-11-20T14:31:53;1.30;98.20
23271;DHT22;11804;51.118;17.058;2022-11-20T14:34:26;1.20;98.70
23271;DHT22;11804;51.118;17.058;2022-11-20T14:37:00;1.20;99.40
23271;DHT22;11804;51.118;17.058;2022-11-20T14:42:02;1.00;99.90
23271;DHT22;11804;51.118;17.058;2022-11-20T14:44:32;1.00;99.90
23271;DHT22;11804;51.118;17.058;2022-11-20T14:47:02;0.90;99.90
23271;DHT22;11804;51.118;17.058;2022-11-20T14:49:31;0.80;99.90
23271;DHT22;11804;51.118;17.058;2022-11-20T14:52:09;0.80;99.90
23271;DHT22;11804;51.118;17.058;2022-11-20T14:54:32;0.70;99.90
23271;DHT22;11804;51.118;17.058;2022-11-20T14:57:03;0.70;99.90
23271;DHT22;11804;51.118;17.058;2022-11-20T14:59:34;0.60;99.90
23271;DHT22;11804;51.118;17.058;2022-11-20T15:02:05;0.60;99.90
23271;DHT22;11804;51.118;17.058;2022-11-20T15:04:43;0.50;99.90
23271;DHT22;11804;51.118;17.058;2022-11-20T15:07:02;0.50;99.90
23271;DHT22;11804;51.118;17.058;2022-11-20T15:09:29;0.40;99.90
23271;DHT22;11804;51.118;17.058;2022-11-20T15:11:59;0.40;99.90
23271;DHT22;11804;51.118;17.058;2022-11-20T15:14:28;0.40;99.90
23271;DHT22;11804;51.118;17.058;2022-11-20T15:16:57;0.40;99.90
23271;DHT22;11804;51.118;17.058;2022-11-20T15:19:25;0.40;99.90
23271;DHT22;11804;51.118;17.058;2022-11-20T15:21:54;0.30;99.90
23271;DHT22;11804;51.118;17.058;2022-11-20T15:24:21;0.30;99.90
23271;DHT22;11804;51.118;17.058;2022-11-20T15:26:49;0.30;99.90
23271;DHT22;11804;51.118;17.058;2022-11-20T15:29:17;0.20;99.90
23271;DHT22;11804;51.118;17.058;2022-11-20T15:31:47;0.10;99.90
23271;DHT22;11804;51.118;17.058;2022-11-20T15:34:17;0.10;99.90
23271;DHT22;11804;51.118;17.058;2022-11-20T15:36:45;0.10;99.90
23271;DHT22;11804;51.118;17.058;2022-11-20T15:39:12;0.00;99.90
23271;DHT22;11804;51.118;17.058;2022-11-20T15:41:39;-0.10;99.90
23271;DHT22;11804;51.118;17.058;2022-11-20T15:44:07;0.00;99.90
23271;DHT22;11804;51.118;17.058;2022-11-20T15:46:37;-0.10;99.90
23271;DHT22;11804;51.118;17.058;2022-11-20T15:49:08;-0.10;99.90
23271;DHT22;11804;51.118;17.058;2022-11-20T15:51:38;-0.10;99.90
23271;DHT22;11804;51.118;17.058;2022-11-20T15:54:14;-0.20;99.90
23271;DHT22;11804;51.118;17.058;2022-11-20T15:56:44;-0.20;99.90
23271;DHT22;11804;51.118;17.058;2022-11-20T15:59:12;-0.20;99.90
23271;DHT22;11804;51.118;17.058;2022-11-20T16:01:42;-0.20;99.90
23271;DHT22;11804;51.118;17.058;2022-11-20T16:04:15;-0.30;99.90
23271;DHT22;11804;51.118;17.058;2022-11-20T16:06:43;-0.30;99.90
23271;DHT22;11804;51.118;17.058;2022-11-20T16:09:11;-0.30;99.90
23271;DHT22;11804;51.118;17.058;2022-11-20T16:11:38;-0.40;99.90
23271;DHT22;11804;51.118;17.058;2022-11-20T16:14:08;-0.40;99.90
23271;DHT22;11804;51.118;17.058;2022-11-20T16:16:53;-0.30;99.90
23271;DHT22;11804;51.118;17.058;2022-11-20T16:19:21;-0.30;99.90
23271;DHT22;11804;51.118;17.058;2022-11-20T16:21:48;-0.30;99.90
23271;DHT22;11804;51.118;17.058;2022-11-20T16:24:16;-0.40;99.90
23271;DHT22;11804;51.118;17.058;2022-11-20T16:26:43;-0.30;99.90
23271;DHT22;11804;51.118;17.058;2022-11-20T16:29:11;-0.40;99.90
23271;DHT22;11804;51.118;17.058;2022-11-20T16:31:39;-0.40;99.90
23271;DHT22;11804;51.118;17.058;2022-11-20T16:34:07;-0.30;99.90
23271;DHT22;11804;51.118;17.058;2022-11-20T16:36:36;-0.30;99.90
23271;DHT22;11804;51.118;17.058;2022-11-20T16:39:05;-0.30;99.90
23271;DHT22;11804;51.118;17.058;2022-11-20T16:41:34;-0.20;99.90
23271;DHT22;11804;51.118;17.058;2022-11-20T16:44:08;-0.20;99.90
23271;DHT22;11804;51.118;17.058;2022-11-20T16:46:36;-0.10;99.90
23271;DHT22;11804;51.118;17.058;2022-11-20T16:49:06;0.10;99.90
23271;DHT22;11804;51.118;17.058;2022-11-20T16:51:35;0.10;99.90
23271;DHT22;11804;51.118;17.058;2022-11-20T16:54:05;0.10;99.90
23271;DHT22;11804;51.118;17.058;2022-11-20T16:56:33;0.20;99.90